Time;durP1;ratioP1;P1;durP2;ratioP2;P2;SDS_P1;SDS_P2;PMS_P1;PMS_P2;Temp;Humidity;BMP_temperature;BMP_pressure;BME280_temperature;BME280_humidity;BME280_pressure;Samples;Min_cycle;Max_cycle;Signal;HPM_P1;HPM_P2
2021/04/30 00:02:21;;;;;;;12.60;7.53;;;435.30;2355.20;;;;;;5039018;28;20113;-83
2021/04/30 00:04:47;;;;;;;14.75;7.50;;;435.30;2355.20;;;;;;5038631;28;20132;-84
2021/04/30 00:07:13;;;;;;;11.00;7.30;;;435.30;2355.20;;;;;;5038858;28;20412;-82
2021/04/30 00:09:40;;;;;;;13.52;8.13;;;435.40;2355.20;;;;;;5039020;28;20024;-83
2021/04/30 00:12:06;;;;;;;14.20;7.93;;;435.40;2355.20;;;;;;5038801;28;20025;-82
2021/04/30 00:14:32;;;;;;;10.32;7.07;;;435.40;2355.20;;;;;;5039913;28;20036;-82
2021/04/30 00:16:58;;;;;;;12.68;7.60;;;435.40;2355.20;;;;;;5040186;28;20017;-81
2021/04/30 00:19:25;;;;;;;11.35;7.50;;;435.40;2355.20;;;;;;5038941;28;20029;-83
2021/04/30 00:21:51;;;;;;;15.00;8.35;;;435.30;2355.20;;;;;;5038673;28;20079;-83
2021/04/30 00:24:17;;;;;;;16.90;9.25;;;435.30;2355.20;;;;;;5038462;28;20445;-84
2021/04/30 00:26:43;;;;;;;17.35;8.85;;;435.20;2355.20;;;;;;5038425;28;20025;-84
2021/04/30 00:29:09;;;;;;;16.75;8.98;;;410.30;2355.20;;;;;;5038535;28;20024;-83
2021/04/30 00:31:35;;;;;;;10.07;7.63;;;410.50;2355.20;;;;;;5055704;28;20021;-83
2021/04/30 00:34:02;;;;;;;12.98;7.43;;;410.20;2355.20;;;;;;5038418;28;20075;-84
2021/04/30 00:36:28;;;;;;;16.83;8.73;;;410.30;2355.20;;;;;;5056273;28;20017;-83
2021/04/30 00:38:55;;;;;;;15.48;8.65;;;410.20;2355.20;;;;;;5038348;28;20079;-83
2021/04/30 00:41:21;;;;;;;13.88;9.10;;;410.20;2355.20;;;;;;5038234;28;20086;-83
2021/04/30 00:43:47;;;;;;;13.27;8.93;;;410.20;2355.20;;;;;;5038401;28;20027;-83
2021/04/30 00:46:13;;;;;;;15.65;8.43;;;410.20;2355.20;;;;;;5037988;28;20411;-85
2021/04/30 00:48:39;;;;;;;14.40;8.82;;;410.10;2355.20;;;;;;5038365;28;20017;-84
2021/04/30 00:51:05;;;;;;;14.02;8.32;;;410.20;2355.20;;;;;;5056175;28;20105;-84
2021/04/30 00:53:31;;;;;;;14.60;9.30;;;410.20;2355.20;;;;;;5037515;28;20059;-84
2021/04/30 00:55:57;;;;;;;18.38;8.93;;;410.20;2355.20;;;;;;5038118;28;20025;-83
2021/04/30 00:58:23;;;;;;;16.45;9.77;;;410.20;2355.20;;;;;;5037893;28;20033;-86
2021/04/30 01:00:49;;;;;;;16.70;9.98;;;410.00;2355.20;;;;;;5037765;28;20021;-83
2021/04/30 01:03:15;;;;;;;16.80;10.05;;;410.00;2355.20;;;;;;5038435;28;20025;-83
2021/04/30 01:05:41;;;;;;;23.00;12.32;;;409.90;2355.20;;;;;;5037930;28;20052;-83
2021/04/30 01:08:07;;;;;;;21.77;13.30;;;409.80;2355.20;;;;;;5037573;28;20032;-83
2021/04/30 01:10:34;;;;;;;20.17;11.65;;;409.70;2355.20;;;;;;5037491;28;20494;-82
2021/04/30 01:13:01;;;;;;;18.58;11.25;;;409.60;2355.20;;;;;;5055867;28;20028;-83
2021/04/30 01:15:27;;;;;;;17.33;9.80;;;409.70;2355.20;;;;;;5037774;28;20024;-82
2021/04/30 01:17:53;;;;;;;17.08;10.15;;;409.70;2355.20;;;;;;5037815;28;20442;-83
2021/04/30 01:20:20;;;;;;;18.40;10.07;;;409.70;2355.20;;;;;;5036076;28;20113;-84
2021/04/30 01:22:52;;;;;;;16.65;10.38;;;409.70;2355.20;;;;;;5036708;28;20025;-82
2021/04/30 01:25:23;;;;;;;18.13;10.67;;;384.90;2329.60;;;;;;5036981;28;20034;-83
2021/04/30 01:27:51;;;;;;;16.52;9.10;;;384.90;2329.60;;;;;;5037318;28;20044;-83
2021/04/30 01:30:19;;;;;;;15.82;9.85;;;384.80;2329.60;;;;;;5053929;28;20028;-84
2021/04/30 01:32:45;;;;;;;13.52;8.65;;;384.80;2329.60;;;;;;5053694;28;20043;-84
2021/04/30 01:35:17;;;;;;;21.27;9.63;;;384.80;2329.60;;;;;;5054121;28;20120;-88
2021/04/30 01:37:43;;;;;;;14.95;8.40;;;384.80;2329.60;;;;;;5053745;28;20079;-84
2021/04/30 01:40:14;;;;;;;15.52;9.60;;;384.80;2329.60;;;;;;5054364;28;20025;-84
2021/04/30 01:43:00;;;;;;;16.38;10.75;;;384.80;2329.60;;;;;;5053424;28;20116;-83
2021/04/30 01:45:27;;;;;;;16.60;10.27;;;384.70;2329.60;;;;;;5054562;28;20025;-84
2021/04/30 01:47:53;;;;;;;16.42;9.77;;;384.80;2329.60;;;;;;5036935;28;20025;-84
2021/04/30 01:50:19;;;;;;;20.77;10.82;;;384.70;2329.60;;;;;;5053333;28;20342;-84
2021/04/30 01:52:45;;;;;;;17.90;10.63;;;384.80;2329.60;;;;;;5036825;28;20025;-85
2021/04/30 01:55:11;;;;;;;15.52;10.52;;;384.80;2329.60;;;;;;5036359;28;20418;-83
2021/04/30 01:57:42;;;;;;;15.70;10.18;;;409.80;2355.20;;;;;;5036717;28;20048;-83
2021/04/30 02:00:17;;;;;;;18.08;10.55;;;409.60;2355.20;;;;;;5036680;28;20020;-83
2021/04/30 02:02:47;;;;;;;16.50;9.52;;;409.60;2355.20;;;;;;5036500;28;20033;-84
2021/04/30 02:05:13;;;;;;;16.70;9.82;;;409.60;2355.20;;;;;;5054624;28;20476;-84
2021/04/30 02:07:39;;;;;;;17.95;9.05;;;409.60;2355.20;;;;;;5054518;28;20017;-83
2021/04/30 02:10:10;;;;;;;15.80;8.88;;;410.30;2355.20;;;;;;5036558;28;20112;-84
2021/04/30 02:12:35;;;;;;;15.20;9.48;;;409.60;2355.20;;;;;;5036758;28;20033;-83
2021/04/30 02:15:02;;;;;;;17.20;9.20;;;384.80;2329.60;;;;;;5054533;28;20036;-83
2021/04/30 02:17:30;;;;;;;14.30;8.68;;;384.40;2329.60;;;;;;5053197;28;20069;-83
2021/04/30 02:19:57;;;;;;;14.10;9.10;;;384.50;2329.60;;;;;;5053029;28;20017;-85
2021/04/30 02:22:23;;;;;;;15.45;8.45;;;384.40;2329.60;;;;;;5036699;28;20440;-83
2021/04/30 02:24:49;;;;;;;13.48;9.40;;;384.30;2329.60;;;;;;5035386;28;20112;-85
2021/04/30 02:27:15;;;;;;;14.38;9.32;;;384.50;2329.60;;;;;;5035913;28;20048;-85
2021/04/30 02:29:41;;;;;;;14.65;9.75;;;384.30;2329.60;;;;;;5054529;28;20021;-85
2021/04/30 02:32:06;;;;;;;14.80;9.43;;;384.20;2329.60;;;;;;5036020;28;20135;-84
2021/04/30 02:34:32;;;;;;;15.75;8.75;;;384.20;2329.60;;;;;;5036372;28;20032;-83
2021/04/30 02:36:58;;;;;;;13.48;8.57;;;384.20;2329.60;;;;;;5035876;28;20449;-85
2021/04/30 02:39:24;;;;;;;19.20;9.55;;;384.40;2329.60;;;;;;5036100;28;20049;-84
2021/04/30 02:41:50;;;;;;;15.25;10.15;;;384.50;2329.60;;;;;;5036232;28;20021;-84
2021/04/30 02:44:16;;;;;;;15.20;9.57;;;384.60;2329.60;;;;;;5035976;28;20028;-83
2021/04/30 02:46:42;;;;;;;16.52;9.65;;;384.50;2329.60;;;;;;5035835;28;20028;-83
2021/04/30 02:49:13;;;;;;;15.52;9.63;;;384.50;2329.60;;;;;;5036098;28;20017;-84
2021/04/30 02:51:39;;;;;;;16.35;9.43;;;384.50;2329.60;;;;;;5053908;28;20166;-83
2021/04/30 02:54:06;;;;;;;14.50;9.68;;;384.60;2329.60;;;;;;5035063;28;20483;-84
2021/04/30 02:56:34;;;;;;;17.30;9.77;;;384.60;2329.60;;;;;;5035692;28;20138;-86
2021/04/30 02:59:03;;;;;;;23.65;11.20;;;384.50;2329.60;;;;;;5035297;28;20027;-84
2021/04/30 03:01:30;;;;;;;21.90;10.63;;;384.40;2329.60;;;;;;5036325;28;20159;-84
2021/04/30 03:03:55;;;;;;;19.30;10.48;;;384.10;2329.60;;;;;;5036174;28;20028;-84
2021/04/30 03:06:21;;;;;;;21.52;11.00;;;384.50;2329.60;;;;;;5035831;28;20029;-83
2021/04/30 03:08:52;;;;;;;17.45;9.95;;;384.60;2329.60;;;;;;5054071;28;20016;-85
2021/04/30 03:11:19;;;;;;;17.15;10.50;;;384.50;2329.60;;;;;;5036127;28;20087;-85
2021/04/30 03:13:45;;;;;;;20.73;10.57;;;384.50;2329.60;;;;;;5035755;28;20420;-84
2021/04/30 03:16:10;;;;;;;15.32;9.18;;;384.30;2329.60;;;;;;5036126;28;20124;-86
2021/04/30 03:18:36;;;;;;;14.30;8.30;;;384.30;2329.60;;;;;;5035966;28;20025;-85
2021/04/30 03:21:02;;;;;;;15.05;8.88;;;384.20;2329.60;;;;;;5053586;28;20096;-83
2021/04/30 03:23:28;;;;;;;15.23;8.63;;;384.10;2329.60;;;;;;5034731;28;20017;-86
2021/04/30 03:25:54;;;;;;;14.30;8.52;;;384.10;2329.60;;;;;;5035692;28;20029;-85
2021/04/30 03:28:20;;;;;;;20.25;8.57;;;384.20;2329.60;;;;;;5034887;28;20021;-85
2021/04/30 03:30:46;;;;;;;12.65;8.40;;;384.10;2329.60;;;;;;5035496;28;20024;-85
2021/04/30 03:33:11;;;;;;;18.75;10.02;;;384.10;2329.60;;;;;;5035550;28;20045;-84
2021/04/30 03:35:37;;;;;;;28.65;15.85;;;384.20;2329.60;;;;;;5035662;28;20049;-85
2021/04/30 03:38:04;;;;;;;23.70;14.32;;;384.30;2329.60;;;;;;5036483;28;20344;-84
2021/04/30 03:40:30;;;;;;;26.42;15.50;;;384.30;2329.60;;;;;;5035472;28;20032;-83
2021/04/30 03:42:56;;;;;;;21.92;14.40;;;384.30;2329.60;;;;;;5035740;28;20025;-86
2021/04/30 03:45:22;;;;;;;22.83;12.38;;;384.30;2329.60;;;;;;5035718;28;20040;-85
2021/04/30 03:47:48;;;;;;;20.00;12.70;;;384.30;2329.60;;;;;;5038406;28;20017;-83
2021/04/30 03:50:14;;;;;;;22.08;13.25;;;384.20;2329.60;;;;;;5040007;28;20021;-84
2021/04/30 03:52:40;;;;;;;18.92;9.38;;;384.20;2329.60;;;;;;5039430;28;20028;-84
2021/04/30 03:55:06;;;;;;;13.88;7.60;;;384.20;2329.60;;;;;;5039086;28;20052;-83
2021/04/30 03:57:32;;;;;;;14.55;8.50;;;359.10;2329.60;;;;;;5038990;28;20021;-83
2021/04/30 03:59:58;;;;;;;14.70;8.00;;;384.00;2329.60;;;;;;5039820;28;20087;-87
2021/04/30 04:02:24;;;;;;;15.35;8.65;;;359.30;2329.60;;;;;;5038542;28;20084;-84
2021/04/30 04:04:50;;;;;;;14.13;7.93;;;359.30;2329.60;;;;;;5056436;28;20040;-84
2021/04/30 04:07:16;;;;;;;14.65;8.75;;;359.30;2329.60;;;;;;5056792;28;20364;-84
2021/04/30 04:09:41;;;;;;;15.23;9.15;;;384.00;2329.60;;;;;;5039343;28;20028;-83
2021/04/30 04:12:08;;;;;;;13.48;7.85;;;384.10;2329.60;;;;;;5039389;28;20020;-85
2021/04/30 04:14:34;;;;;;;15.35;10.13;;;384.30;2329.60;;;;;;5038893;28;20025;-85
2021/04/30 04:16:59;;;;;;;31.63;20.38;;;384.40;2329.60;;;;;;5038581;28;20032;-84
2021/04/30 04:19:25;;;;;;;63.13;42.97;;;384.50;2329.60;;;;;;5057003;28;20029;-85
2021/04/30 04:21:51;;;;;;;43.35;27.80;;;384.60;2329.60;;;;;;5038647;28;20025;-84
2021/04/30 04:24:17;;;;;;;30.00;21.60;;;384.70;2329.60;;;;;;5038242;28;20345;-86
2021/04/30 04:26:43;;;;;;;26.40;17.38;;;384.60;2329.60;;;;;;5038672;28;20036;-84
2021/04/30 04:29:09;;;;;;;26.67;15.48;;;384.70;2329.60;;;;;;5038665;28;20482;-83
2021/04/30 04:31:37;;;;;;;32.63;17.42;;;384.60;2329.60;;;;;;5055784;28;20019;-83
2021/04/30 04:34:04;;;;;;;67.47;41.30;;;384.60;2329.60;;;;;;5038528;28;20029;-87
2021/04/30 04:36:32;;;;;;;48.50;26.90;;;384.40;2329.60;;;;;;5038157;28;20021;-85
2021/04/30 04:38:57;;;;;;;21.23;13.63;;;384.30;2329.60;;;;;;5038815;28;20419;-84
2021/04/30 04:41:23;;;;;;;20.27;11.52;;;384.30;2329.60;;;;;;5038099;28;20017;-84
2021/04/30 04:43:49;;;;;;;20.90;10.98;;;384.40;2329.60;;;;;;5038593;28;20032;-83
2021/04/30 04:46:15;;;;;;;20.08;10.77;;;384.40;2329.60;;;;;;5037989;28;20033;-83
2021/04/30 04:48:41;;;;;;;22.08;11.82;;;384.30;2329.60;;;;;;5037005;28;20021;-84
2021/04/30 04:51:06;;;;;;;21.02;12.60;;;384.50;2329.60;;;;;;5038036;28;20027;-86
2021/04/30 04:53:32;;;;;;;16.13;10.32;;;384.60;2329.60;;;;;;5037867;28;20032;-83
2021/04/30 04:55:58;;;;;;;17.83;11.07;;;384.90;2329.60;;;;;;5038152;28;20021;-83
2021/04/30 04:58:24;;;;;;;19.23;10.50;;;384.60;2329.60;;;;;;5037133;28;20116;-84
2021/04/30 05:00:50;;;;;;;17.98;9.85;;;384.60;2329.60;;;;;;5038269;28;20023;-83
2021/04/30 05:03:15;;;;;;;22.23;10.95;;;384.70;2329.60;;;;;;5039130;28;20021;-83
2021/04/30 05:05:41;;;;;;;25.67;11.40;;;384.80;2329.60;;;;;;5038163;28;20029;-83
2021/04/30 05:08:07;;;;;;;26.85;13.75;;;384.90;2329.60;;;;;;5038538;28;20116;-82
2021/04/30 05:10:33;;;;;;;22.13;15.95;;;409.60;2355.20;;;;;;5037993;28;20021;-83
2021/04/30 05:12:59;;;;;;;33.67;19.13;;;409.70;2355.20;;;;;;5037373;28;20117;-84
2021/04/30 05:15:25;;;;;;;31.60;19.58;;;409.80;2355.20;;;;;;5037305;28;20079;-83
2021/04/30 05:17:51;;;;;;;37.67;23.25;;;409.80;2355.20;;;;;;5055486;28;20021;-84
2021/04/30 05:20:17;;;;;;;33.17;21.77;;;409.90;2355.20;;;;;;5037436;28;20023;-84
2021/04/30 05:22:44;;;;;;;25.92;16.40;;;410.10;2355.20;;;;;;5037387;28;20075;-85
2021/04/30 05:25:12;;;;;;;17.40;12.38;;;410.20;2355.20;;;;;;5037181;28;20040;-84
2021/04/30 05:27:42;;;;;;;13.15;8.88;;;410.30;2355.20;;;;;;5037433;28;20021;-85
2021/04/30 05:30:12;;;;;;;16.30;9.80;;;410.30;2355.20;;;;;;5055279;28;20035;-85
2021/04/30 05:32:39;;;;;;;11.30;7.75;;;435.40;2355.20;;;;;;5036802;28;20045;-84
2021/04/30 05:35:06;;;;;;;47.03;35.97;;;435.20;2355.20;;;;;;5037426;28;20036;-84
2021/04/30 05:37:33;;;;;;;30.70;23.83;;;410.30;2355.20;;;;;;5037500;28;20365;-86
2021/04/30 05:39:59;;;;;;;37.35;21.00;;;410.20;2355.20;;;;;;5036990;28;20025;-85
2021/04/30 05:42:28;;;;;;;32.50;19.17;;;410.10;2355.20;;;;;;5036984;28;20021;-85
2021/04/30 05:44:55;;;;;;;27.70;18.80;;;410.10;2355.20;;;;;;5037064;28;20040;-84
2021/04/30 05:47:21;;;;;;;30.10;17.55;;;410.50;2355.20;;;;;;5037034;28;20110;-84
2021/04/30 05:49:47;;;;;;;20.58;12.18;;;409.90;2355.20;;;;;;5037100;28;20025;-85
2021/04/30 05:52:13;;;;;;;16.27;9.77;;;409.90;2355.20;;;;;;5037062;28;20036;-85
2021/04/30 05:54:41;;;;;;;14.77;9.30;;;410.00;2355.20;;;;;;5036717;28;20373;-85
2021/04/30 05:57:06;;;;;;;15.23;9.60;;;410.00;2355.20;;;;;;5036788;28;20027;-86
2021/04/30 05:59:33;;;;;;;16.65;9.75;;;409.90;2355.20;;;;;;5037397;28;20104;-89
2021/04/30 06:01:59;;;;;;;20.27;10.73;;;409.90;2355.20;;;;;;5036052;28;20021;-82
2021/04/30 06:04:26;;;;;;;20.05;11.50;;;410.00;2355.20;;;;;;5036703;28;20024;-83
2021/04/30 06:06:52;;;;;;;19.00;11.88;;;410.20;2355.20;;;;;;5036421;28;20029;-84
2021/04/30 06:09:19;;;;;;;19.33;10.48;;;410.30;2355.20;;;;;;5036207;28;20360;-85
2021/04/30 06:11:45;;;;;;;20.52;11.30;;;410.50;2355.20;;;;;;5036524;28;20476;-81
2021/04/30 06:14:11;;;;;;;16.30;11.18;;;435.20;2355.20;;;;;;5037069;28;20021;-80
2021/04/30 06:16:38;;;;;;;18.15;11.38;;;435.30;2355.20;;;;;;5036529;28;20025;-84
2021/04/30 06:19:04;;;;;;;18.83;9.55;;;435.40;2355.20;;;;;;5036472;28;20070;-81
2021/04/30 06:21:30;;;;;;;16.55;11.70;;;435.40;2355.20;;;;;;5036203;28;20025;-81
2021/04/30 06:23:56;;;;;;;14.82;11.40;;;435.40;2355.20;;;;;;5036998;28;20403;-82
2021/04/30 06:26:22;;;;;;;22.20;13.30;;;435.40;2355.20;;;;;;5036266;28;20078;-81
2021/04/30 06:28:47;;;;;;;19.85;12.82;;;435.30;2355.20;;;;;;5035971;28;20047;-82
2021/04/30 06:31:13;;;;;;;17.48;10.65;;;435.40;2355.20;;;;;;5036296;28;20070;-81
2021/04/30 06:33:39;;;;;;;16.90;10.30;;;435.50;2355.20;;;;;;5036141;28;20055;-83
2021/04/30 06:36:06;;;;;;;18.60;10.05;;;435.40;2355.20;;;;;;5036233;28;20028;-81
2021/04/30 06:38:32;;;;;;;22.52;11.23;;;435.50;2355.20;;;;;;5036262;28;20075;-80
2021/04/30 06:40:58;;;;;;;17.73;12.32;;;435.50;2355.20;;;;;;5036192;28;20021;-80
2021/04/30 06:43:23;;;;;;;33.97;24.33;;;435.60;2355.20;;;;;;5035595;28;20031;-81
2021/04/30 06:45:49;;;;;;;50.90;43.92;;;435.70;2355.20;;;;;;5036058;28;20086;-81
2021/04/30 06:48:15;;;;;;;36.10;28.27;;;435.80;2355.20;;;;;;5053894;28;20029;-81
2021/04/30 06:50:41;;;;;;;26.23;20.08;;;435.80;2355.20;;;;;;5034654;28;20391;-79
2021/04/30 06:53:07;;;;;;;28.35;17.55;;;435.90;2355.20;;;;;;5036018;28;20025;-80
2021/04/30 06:55:33;;;;;;;29.73;24.67;;;436.10;2355.20;;;;;;5034951;28;20033;-80
2021/04/30 06:57:58;;;;;;;26.20;19.70;;;436.10;2355.20;;;;;;5035797;28;20028;-80
2021/04/30 07:00:24;;;;;;;24.45;18.08;;;460.80;2380.80;;;;;;5035803;28;20024;-81
2021/04/30 07:02:50;;;;;;;22.20;16.55;;;461.00;2380.80;;;;;;5035843;28;20028;-79
2021/04/30 07:05:16;;;;;;;26.00;13.82;;;461.10;2380.80;;;;;;5035255;28;20440;-78
2021/04/30 07:07:42;;;;;;;21.80;13.05;;;461.10;2380.80;;;;;;5036305;28;20025;-79
2021/04/30 07:10:09;;;;;;;27.45;13.98;;;486.60;2380.80;;;;;;5035862;28;20021;-82
2021/04/30 07:12:37;;;;;;;29.80;15.65;;;461.40;2380.80;;;;;;5035469;28;20071;-81
2021/04/30 07:15:08;;;;;;;27.15;12.88;;;461.50;2380.80;;;;;;5036208;28;20112;-79
2021/04/30 07:17:34;;;;;;;25.77;12.90;;;461.50;2380.80;;;;;;5035515;28;20021;-79
2021/04/30 07:20:00;;;;;;;19.90;11.45;;;461.50;2380.80;;;;;;5034363;28;20021;-80
2021/04/30 07:22:26;;;;;;;23.35;10.98;;;486.40;2380.80;;;;;;5056209;28;20024;-80
2021/04/30 07:24:52;;;;;;;17.35;11.05;;;486.60;2380.80;;;;;;5039071;28;20031;-80
2021/04/30 07:27:18;;;;;;;24.25;13.45;;;486.60;2380.80;;;;;;5039544;28;20399;-79
2021/04/30 07:29:45;;;;;;;23.38;13.10;;;486.70;2380.80;;;;;;5057645;28;20079;-81
2021/04/30 07:32:11;;;;;;;21.10;12.65;;;487.00;2380.80;;;;;;5039049;28;20088;-80
2021/04/30 07:34:38;;;;;;;28.27;11.88;;;487.10;2380.80;;;;;;5053498;28;20025;-80
2021/04/30 07:37:05;;;;;;;20.67;11.18;;;487.30;2380.80;;;;;;5053798;28;20364;-80
2021/04/30 07:39:32;;;;;;;20.10;10.93;;;487.30;2380.80;;;;;;5056767;28;20024;-79
2021/04/30 07:41:59;;;;;;;22.30;13.90;;;487.30;2380.80;;;;;;5039312;28;20021;-79
2021/04/30 07:44:24;;;;;;;19.17;9.50;;;512.00;2380.80;;;;;;5038844;28;20139;-79
2021/04/30 07:46:50;;;;;;;17.17;8.93;;;512.20;2380.80;;;;;;5055557;28;20056;-80
2021/04/30 07:49:16;;;;;;;15.25;8.98;;;512.50;2355.20;;;;;;5054716;28;20036;-80
2021/04/30 07:51:42;;;;;;;17.05;8.68;;;512.80;2252.80;;;;;;5039695;28;20028;-78
2021/04/30 07:54:11;;;;;;;16.17;7.80;;;537.60;2227.20;;;;;;5036837;28;20156;-82
2021/04/30 07:56:37;;;;;;;15.77;7.57;;;537.90;2201.60;;;;;;5032618;28;20013;-79
2021/04/30 07:59:03;;;;;;;33.20;8.40;;;537.80;2099.20;;;;;;5050370;28;20017;-81
2021/04/30 08:01:30;;;;;;;17.35;7.97;;;538.30;1996.80;;;;;;5052520;28;20124;-80
2021/04/30 08:03:56;;;;;;;18.20;6.95;;;538.50;1945.60;;;;;;5033421;28;20013;-83
2021/04/30 08:06:22;;;;;;;15.10;7.60;;;563.30;1945.60;;;;;;5035042;28;20056;-79
2021/04/30 08:08:47;;;;;;;16.75;7.95;;;563.50;1894.40;;;;;;5053863;28;20372;-81
2021/04/30 08:11:13;;;;;;;12.70;5.45;;;563.70;1843.20;;;;;;5053724;28;20029;-80
2021/04/30 08:13:39;;;;;;;21.40;9.57;;;563.80;1792.00;;;;;;5033182;28;20024;-81
2021/04/30 08:16:05;;;;;;;21.65;8.40;;;564.00;1792.00;;;;;;5033162;28;20017;-80
2021/04/30 08:18:31;;;;;;;18.58;8.40;;;564.10;1792.00;;;;;;5033543;28;20480;-80
2021/04/30 08:20:58;;;;;;;19.98;9.52;;;588.80;1766.40;;;;;;5033670;28;20021;-79
2021/04/30 08:23:24;;;;;;;16.65;7.22;;;589.10;1715.20;;;;;;5036377;28;20029;-80
2021/04/30 08:25:50;;;;;;;12.05;5.60;;;589.00;1766.40;;;;;;5037376;28;20368;-80
2021/04/30 08:28:16;;;;;;;16.58;5.40;;;589.10;1715.20;;;;;;5035796;28;20025;-81
2021/04/30 08:30:41;;;;;;;13.23;5.95;;;589.40;1664.00;;;;;;5035411;28;20036;-81
2021/04/30 08:33:07;;;;;;;11.60;5.35;;;589.40;1689.60;;;;;;5055146;28;20033;-81
2021/04/30 08:35:33;;;;;;;13.48;5.80;;;589.50;1664.00;;;;;;5036771;28;20418;-81
2021/04/30 08:38:01;;;;;;;8.27;3.58;;;589.60;1664.00;;;;;;5045849;28;20032;-82
2021/04/30 08:40:28;;;;;;;15.65;5.22;;;589.60;1561.60;;;;;;5029550;28;21426;-83
2021/04/30 08:42:54;;;;;;;15.25;6.70;;;614.40;1612.80;;;;;;5046467;28;20077;-81
2021/04/30 08:45:20;;;;;;;14.30;5.68;;;614.50;1536.00;;;;;;5034205;28;20025;-82
2021/04/30 08:47:46;;;;;;;12.68;5.07;;;614.60;1510.40;;;;;;5045408;28;20075;-81
2021/04/30 08:50:13;;;;;;;13.43;4.68;;;614.80;1510.40;;;;;;5030684;28;20031;-81
2021/04/30 08:52:40;;;;;;;15.75;4.82;;;614.80;1510.40;;;;;;5030914;28;20072;-82
2021/04/30 08:55:11;;;;;;;14.70;4.95;;;614.80;1510.40;;;;;;5039567;28;20021;-82
2021/04/30 08:57:37;;;;;;;12.10;4.63;;;614.90;1510.40;;;;;;5032824;28;20518;-82
2021/04/30 09:00:06;;;;;;;12.23;4.57;;;614.70;1459.20;;;;;;5033589;28;20032;-81
2021/04/30 09:02:39;;;;;;;12.45;5.93;;;615.10;1484.80;;;;;;5032443;28;20524;-82
2021/04/30 09:05:08;;;;;;;10.43;4.80;;;640.00;1382.40;;;;;;5048715;28;20053;-82
2021/04/30 09:07:40;;;;;;;11.52;5.07;;;640.00;1382.40;;;;;;5032977;28;20096;-84
2021/04/30 09:10:12;;;;;;;18.65;8.18;;;640.10;1382.40;;;;;;5048576;28;20063;-80
2021/04/30 09:12:42;;;;;;;12.40;6.15;;;640.40;1382.40;;;;;;5029242;28;20021;-80
2021/04/30 09:15:20;;;;;;;14.05;4.78;;;640.50;1382.40;;;;;;5051203;28;20449;-80
2021/04/30 09:17:46;;;;;;;14.70;5.30;;;640.20;1408.00;;;;;;5032112;28;20017;-80
2021/04/30 09:20:13;;;;;;;16.33;6.43;;;640.50;1433.60;;;;;;5051478;28;20031;-81
2021/04/30 09:22:41;;;;;;;26.88;14.32;;;640.50;1459.20;;;;;;5052464;28;20017;-79
2021/04/30 09:25:10;;;;;;;14.98;8.25;;;640.80;1408.00;;;;;;5035269;28;20086;-80
2021/04/30 09:27:41;;;;;;;12.45;5.00;;;640.80;1408.00;;;;;;5032507;28;20360;-80
2021/04/30 09:30:27;;;;;;;12.13;5.38;;;665.70;1382.40;;;;;;5031944;28;20337;-79
2021/04/30 09:33:17;;;;;;;16.15;6.40;;;665.70;1408.00;;;;;;5029559;28;20033;-78
2021/04/30 09:35:50;;;;;;;16.77;7.13;;;666.00;1408.00;;;;;;5030219;28;20499;-79
2021/04/30 09:38:22;;;;;;;11.77;5.50;;;666.10;1408.00;;;;;;5030942;28;20017;-80
2021/04/30 09:40:50;;;;;;;;;;;666.50;1382.40;;;;;;5031876;28;20460;-79
2021/04/30 09:43:18;;;;;;;13.05;3.92;;;691.20;1356.80;;;;;;5044722;28;19908;-79
2021/04/30 09:45:45;;;;;;;12.25;4.95;;;666.30;1356.80;;;;;;5032437;28;20051;-79
2021/04/30 09:48:13;;;;;;;14.52;4.82;;;691.40;1382.40;;;;;;5031507;28;20107;-82
2021/04/30 09:50:42;;;;;;;13.02;4.38;;;691.60;1356.80;;;;;;5029012;28;20191;-81
2021/04/30 09:53:11;;;;;;;14.35;6.32;;;691.60;1331.20;;;;;;5030835;28;20021;-81
2021/04/30 09:55:51;;;;;;;12.88;5.25;;;691.70;1382.40;;;;;;5048925;28;20021;-80
2021/04/30 09:58:22;;;;;;;14.20;5.68;;;691.90;1331.20;;;;;;5032029;28;20066;-81
2021/04/30 10:00:50;;;;;;;15.25;7.50;;;716.80;1356.80;;;;;;5031051;28;20475;-81
2021/04/30 10:03:19;;;;;;;16.05;6.28;;;716.80;1382.40;;;;;;5034989;28;20044;-82
2021/04/30 10:54:26;;;;;;;17.80;7.57;;;717.50;1228.80;;;;;;5012220;28;20033;-80
2021/04/30 10:57:12;;;;;;;13.73;6.13;;;717.50;1228.80;;;;;;5011575;28;20017;-79
2021/04/30 10:59:39;;;;;;;14.10;4.95;;;717.30;1254.40;;;;;;5017540;28;20026;-82
2021/04/30 11:02:33;;;;;;;12.25;3.97;;;717.20;1228.80;;;;;;5018714;28;20032;-80
2021/04/30 11:05:05;;;;;;;14.60;7.93;;;717.10;1203.20;;;;;;5013774;28;20152;-82
2021/04/30 11:07:57;;;;;;;20.48;12.02;;;717.10;1254.40;;;;;;5032437;28;20021;-80
2021/04/30 11:10:23;;;;;;;12.77;5.43;;;716.90;1280.00;;;;;;5008854;28;20534;-81
2021/04/30 11:13:00;;;;;;;22.50;7.65;;;692.00;1228.80;;;;;;5032585;28;20151;-81
2021/04/30 11:15:53;;;;;;;14.93;4.28;;;691.90;1228.80;;;;;;5014408;28;20029;-82
2021/04/30 11:18:27;;;;;;;8.68;2.80;;;691.90;1126.40;;;;;;5029153;28;20041;-82
2021/04/30 11:21:10;;;;;;;8.55;2.80;;;692.00;947.20;;;;;;5013229;28;20014;-81
2021/04/30 11:23:36;;;;;;;10.35;3.58;;;692.10;921.60;;;;;;5011436;28;20386;-81
2021/04/30 11:26:05;;;;;;;14.02;3.40;;;716.90;947.20;;;;;;5015179;28;20036;-82
2021/04/30 11:28:31;;;;;;;24.70;2.83;;;716.90;921.60;;;;;;5014220;28;20021;-82
2021/04/30 11:31:05;;;;;;;14.93;3.30;;;717.20;896.00;;;;;;5016006;28;20036;-81
2021/04/30 11:33:33;;;;;;;13.93;3.53;;;717.70;870.40;;;;;;5014618;28;20053;-81
2021/04/30 11:36:00;;;;;;;9.02;2.70;;;742.90;896.00;;;;;;5015321;28;20028;-81
2021/04/30 11:38:42;;;;;;;9.68;2.60;;;743.20;870.40;;;;;;5030743;28;20029;-82
2021/04/30 11:41:08;;;;;;;;;;;743.20;870.40;;;;;;5013787;28;20461;-81
2021/04/30 11:43:36;;;;;;;9.73;3.05;;;768.10;844.80;;;;;;5016441;28;19905;-83
2021/04/30 11:46:02;;;;;;;12.43;3.88;;;768.30;844.80;;;;;;5018867;28;20076;-82
2021/04/30 11:48:30;;;;;;;9.27;3.03;;;768.50;844.80;;;;;;5011074;28;20034;-83
2021/04/30 11:51:13;;;;;;;11.80;3.90;;;768.80;819.20;;;;;;5015145;28;20014;-85
2021/04/30 11:53:42;;;;;;;9.38;3.20;;;768.90;819.20;;;;;;5042714;28;20045;-83
2021/04/30 11:56:10;;;;;;;11.07;2.90;;;768.90;819.20;;;;;;5051366;28;20061;-84
2021/04/30 11:58:37;;;;;;;14.20;3.33;;;793.90;844.80;;;;;;5051484;28;20025;-82
2021/04/30 12:01:05;;;;;;;15.80;3.30;;;793.70;844.80;;;;;;5050531;28;20040;-82
2021/04/30 12:03:46;;;;;;;14.13;3.15;;;794.00;844.80;;;;;;5052891;28;20028;-83
2021/04/30 12:06:15;;;;;;;11.88;2.72;;;794.00;844.80;;;;;;5050210;28;20041;-82
2021/04/30 12:08:43;;;;;;;10.38;3.03;;;794.10;844.80;;;;;;5052985;28;20028;-83
2021/04/30 12:11:28;;;;;;;12.15;2.70;;;794.10;844.80;;;;;;5047032;28;20468;-82
2021/04/30 12:13:57;;;;;;;9.32;2.53;;;794.30;844.80;;;;;;5070595;28;20047;-81
2021/04/30 12:16:23;;;;;;;12.98;3.90;;;819.20;844.80;;;;;;5054292;28;20453;-84
2021/04/30 12:18:53;;;;;;;7.10;2.38;;;819.20;844.80;;;;;;5053637;28;20115;-80
2021/04/30 12:21:31;;;;;;;14.68;3.20;;;819.20;844.80;;;;;;5053258;28;20349;-81
2021/04/30 12:23:59;;;;;;;10.95;2.17;;;819.30;819.20;;;;;;5068975;28;20028;-83
2021/04/30 12:26:30;;;;;;;8.77;2.22;;;819.60;819.20;;;;;;5053152;28;20658;-81
2021/04/30 12:28:57;;;;;;;6.88;2.45;;;819.60;819.20;;;;;;5071590;28;20017;-82
2021/04/30 12:31:25;;;;;;;11.05;4.53;;;819.90;793.60;;;;;;5071760;28;20468;-81
2021/04/30 12:33:53;;;;;;;12.32;3.97;;;820.00;793.60;;;;;;5052226;28;20063;-80
2021/04/30 12:36:26;;;;;;;11.05;3.33;;;819.80;793.60;;;;;;5052801;28;20082;-82
2021/04/30 12:39:05;;;;;;;10.38;4.10;;;844.80;793.60;;;;;;5069555;28;20013;-81
2021/04/30 12:41:33;;;;;;;14.73;6.22;;;844.90;819.20;;;;;;5052781;28;20025;-81
2021/04/30 12:44:03;;;;;;;12.73;3.70;;;845.00;819.20;;;;;;5054818;28;20410;-81
2021/04/30 12:46:39;;;;;;;8.65;3.47;;;845.20;793.60;;;;;;5069546;28;20035;-81
2021/04/30 12:49:09;;;;;;;9.43;4.70;;;845.10;793.60;;;;;;5052470;28;20051;-80
2021/04/30 12:51:38;;;;;;;9.68;2.97;;;845.20;819.20;;;;;;5049870;28;20108;-80
2021/04/30 12:54:05;;;;;;;9.90;2.90;;;845.20;819.20;;;;;;5054328;28;20403;-80
2021/04/30 12:56:35;;;;;;;8.27;2.80;;;845.40;768.00;;;;;;5036927;28;20356;-81
2021/04/30 12:59:28;;;;;;;9.13;3.05;;;845.20;768.00;;;;;;5053006;28;20067;-79